Time;durP1;ratioP1;P1;durP2;ratioP2;P2;SDS_P1;SDS_P2;PMS_P1;PMS_P2;Temp;Humidity;BMP_temperature;BMP_pressure;BME280_temperature;BME280_humidity;BME280_pressure;Samples;Min_cycle;Max_cycle;Signal;HPM_P1;HPM_P2
2022/09/17 00:01:44;;;;;;;5.85;2.38;;;12.60;99.20;;;;;;5029707;28;20021;-53
2022/09/17 00:04:30;;;;;;;6.35;2.38;;;12.60;99.40;;;;;;5029994;28;20506;-50
2022/09/17 00:07:17;;;;;;;3.88;2.17;;;12.60;99.50;;;;;;5029680;28;20544;-53
2022/09/17 00:10:04;;;;;;;4.75;2.88;;;12.60;99.60;;;;;;5031237;28;20060;-54
2022/09/17 00:12:50;;;;;;;6.70;2.17;;;12.60;99.80;;;;;;5029414;28;20093;-57
2022/09/17 00:15:41;;;;;;;8.85;2.67;;;12.70;99.80;;;;;;5028480;28;20033;-54
2022/09/17 00:18:26;;;;;;;5.53;2.22;;;12.70;99.80;;;;;;5030447;28;20033;-56
2022/09/17 00:21:16;;;;;;;4.25;2.20;;;12.70;99.90;;;;;;5021788;28;20034;-56
2022/09/17 00:24:05;;;;;;;3.88;2.70;;;12.60;99.90;;;;;;5018498;28;20029;-52
2022/09/17 00:26:52;;;;;;;9.02;2.38;;;12.70;99.90;;;;;;5030144;28;20088;-55
2022/09/17 00:29:38;;;;;;;7.97;2.97;;;12.60;99.90;;;;;;5015907;28;20533;-55
2022/09/17 00:32:25;;;;;;;3.40;2.30;;;12.60;99.90;;;;;;5025087;28;20025;-56
2022/09/17 00:35:11;;;;;;;6.80;2.50;;;12.70;99.90;;;;;;5029852;28;20447;-56
2022/09/17 00:37:57;;;;;;;6.15;2.47;;;12.70;99.90;;;;;;5030087;28;20383;-56
2022/09/17 00:40:42;;;;;;;5.35;2.60;;;12.70;99.90;;;;;;5029951;28;20490;-56
2022/09/17 00:43:50;;;;;;;5.22;2.30;;;12.70;99.90;;;;;;5029393;28;20679;-57
2022/09/17 00:46:36;;;;;;;7.72;2.50;;;12.70;99.90;;;;;;5030596;28;20450;-57
2022/09/17 00:49:28;;;;;;;8.60;2.63;;;12.50;99.90;;;;;;5015927;28;20033;-54
2022/09/17 00:52:22;;;;;;;5.13;2.55;;;12.50;99.90;;;;;;5029629;28;20053;-53
2022/09/17 00:55:21;;;;;;;4.78;2.45;;;12.50;99.90;;;;;;5030371;28;20026;-53
2022/09/17 00:58:10;;;;;;;5.38;2.50;;;12.50;99.90;;;;;;5010705;28;20061;-55
2022/09/17 01:00:56;;;;;;;5.05;2.20;;;12.50;99.90;;;;;;5015550;28;20502;-52
2022/09/17 01:03:42;;;;;;;5.60;2.05;;;12.50;99.90;;;;;;5029114;28;20072;-55
2022/09/17 01:07:07;;;;;;;4.30;2.25;;;12.50;99.90;;;;;;5028979;28;20041;-55
2022/09/17 01:10:16;;;;;;;5.85;2.42;;;12.50;99.90;;;;;;5029835;28;20068;-52
2022/09/17 01:13:13;;;;;;;5.68;2.08;;;12.60;99.90;;;;;;5028864;28;20104;-53
2022/09/17 01:16:22;;;;;;;3.50;2.40;;;12.40;99.90;;;;;;5028744;28;20085;-54
2022/09/17 01:19:28;;;;;;;3.00;1.90;;;12.30;99.90;;;;;;5028986;28;20029;-53
2022/09/17 01:22:36;;;;;;;4.03;1.83;;;12.30;99.90;;;;;;5006983;28;20037;-55
2022/09/17 01:25:33;;;;;;;3.35;2.67;;;12.40;99.90;;;;;;5028519;28;20022;-56
2022/09/17 01:28:28;;;;;;;4.43;1.80;;;12.30;99.90;;;;;;5029261;28;20490;-56
2022/09/17 01:31:38;;;;;;;4.45;1.85;;;12.30;99.90;;;;;;5028406;28;20025;-56
2022/09/17 01:34:41;;;;;;;4.05;2.05;;;12.30;99.90;;;;;;5029873;28;20034;-56
2022/09/17 01:37:39;;;;;;;5.25;1.70;;;12.10;99.90;;;;;;5029111;28;20505;-54
2022/09/17 01:40:48;;;;;;;3.40;1.80;;;12.10;99.90;;;;;;5010986;28;20451;-56
2022/09/17 01:43:45;;;;;;;5.28;2.10;;;12.10;99.90;;;;;;5010073;28;20080;-54
2022/09/17 01:46:46;;;;;;;3.08;1.80;;;11.80;99.90;;;;;;5018262;28;20037;-56
2022/09/17 01:49:36;;;;;;;4.88;2.00;;;11.90;99.90;;;;;;5024637;28;20104;-55
2022/09/17 01:52:23;;;;;;;3.35;1.92;;;11.80;99.90;;;;;;5032809;28;20537;-54
2022/09/17 01:55:13;;;;;;;3.85;2.20;;;11.80;99.90;;;;;;5032800;28;20508;-54
2022/09/17 01:58:03;;;;;;;3.53;1.90;;;11.90;99.90;;;;;;5032997;28;20040;-55
2022/09/17 02:01:00;;;;;;;3.08;1.85;;;11.90;99.90;;;;;;5032189;28;20072;-52
2022/09/17 02:04:08;;;;;;;3.17;1.70;;;11.90;99.90;;;;;;5018459;28;20030;-55
2022/09/17 02:07:14;;;;;;;2.65;1.67;;;11.90;99.90;;;;;;5032368;28;20048;-54
2022/09/17 02:10:19;;;;;;;3.00;1.90;;;11.90;99.90;;;;;;5031806;28;20025;-56
2022/09/17 02:13:23;;;;;;;3.05;2.00;;;11.80;99.90;;;;;;5032330;28;20049;-55
2022/09/17 02:16:22;;;;;;;2.35;1.80;;;11.90;99.90;;;;;;5032296;28;20084;-55
2022/09/17 02:19:30;;;;;;;2.45;1.92;;;11.80;99.90;;;;;;5031672;28;20084;-55
2022/09/17 02:22:27;;;;;;;2.55;1.75;;;11.90;99.90;;;;;;5031156;28;20041;-53
2022/09/17 02:25:18;;;;;;;3.38;2.10;;;11.90;99.90;;;;;;5031388;28;20657;-56
2022/09/17 02:28:14;;;;;;;1.75;1.60;;;12.00;99.90;;;;;;5031842;28;20022;-54
2022/09/17 02:31:00;;;;;;;2.47;1.65;;;12.10;99.90;;;;;;5012668;28;20030;-53
2022/09/17 02:33:51;;;;;;;3.85;1.95;;;12.00;99.90;;;;;;5013988;28;20116;-51
2022/09/17 02:36:37;;;;;;;2.80;1.90;;;12.00;99.90;;;;;;5031301;28;20033;-51
2022/09/17 02:39:23;;;;;;;1.73;1.35;;;11.90;99.90;;;;;;5031532;28;20033;-54
2022/09/17 02:42:18;;;;;;;1.90;1.80;;;11.90;99.90;;;;;;5030735;28;20034;-56
2022/09/17 02:45:45;;;;;;;2.75;1.73;;;12.00;99.90;;;;;;5030885;28;20379;-52
2022/09/17 02:48:34;;;;;;;;;;;11.80;99.90;;;;;;5025902;28;20033;-52
2022/09/17 02:51:39;;;;;;;2.28;1.90;;;11.90;99.90;;;;;;5031625;28;20327;-50
2022/09/17 02:55:00;;;;;;;2.42;1.70;;;12.00;99.90;;;;;;5032332;28;20022;-52
2022/09/17 02:57:49;;;;;;;4.63;1.85;;;12.00;99.90;;;;;;5031060;28;20521;-51
2022/09/17 03:00:35;;;;;;;2.70;1.55;;;12.00;99.90;;;;;;5032103;28;20061;-54
2022/09/17 03:03:43;;;;;;;3.15;1.90;;;12.00;99.90;;;;;;5017151;28;20562;-53
2022/09/17 03:06:29;;;;;;;2.00;1.80;;;11.90;99.90;;;;;;5012089;28;20030;-56
2022/09/17 03:09:15;;;;;;;3.85;1.60;;;12.00;99.90;;;;;;5023079;28;20555;-56
2022/09/17 03:12:01;;;;;;;3.55;1.58;;;12.00;99.90;;;;;;5030361;28;20036;-51
2022/09/17 03:14:47;;;;;;;3.38;1.77;;;12.00;99.90;;;;;;5017805;28;20497;-54
2022/09/17 03:17:33;;;;;;;1.70;1.60;;;11.90;99.90;;;;;;5031469;28;20068;-55
2022/09/17 03:20:19;;;;;;;4.18;1.80;;;12.00;99.90;;;;;;5030983;28;20025;-54
2022/09/17 03:23:05;;;;;;;4.47;1.70;;;12.00;99.90;;;;;;5030621;28;20034;-53
2022/09/17 03:25:51;;;;;;;3.47;2.17;;;12.00;99.90;;;;;;5012403;28;20041;-52
2022/09/17 03:28:37;;;;;;;2.67;1.65;;;11.70;99.90;;;;;;5022555;28;20033;-54
2022/09/17 03:31:23;;;;;;;2.97;1.77;;;11.70;99.90;;;;;;5030301;28;20033;-57
2022/09/17 03:34:09;;;;;;;2.30;1.60;;;11.70;99.90;;;;;;5011762;28;20026;-52
2022/09/17 03:36:55;;;;;;;2.75;1.88;;;11.70;99.90;;;;;;5027249;28;20497;-51
2022/09/17 03:39:41;;;;;;;3.35;1.77;;;11.60;99.90;;;;;;5030460;28;20466;-52
2022/09/17 03:42:27;;;;;;;2.35;1.60;;;11.70;99.90;;;;;;5011346;28;20476;-56
2022/09/17 03:45:13;;;;;;;3.28;2.00;;;11.70;99.90;;;;;;5011879;28;20026;-51
2022/09/17 03:47:59;;;;;;;2.25;1.80;;;11.60;99.90;;;;;;5030593;28;20026;-51
2022/09/17 03:50:45;;;;;;;1.95;1.70;;;11.60;99.90;;;;;;5026147;28;20053;-54
2022/09/17 03:53:32;;;;;;;2.97;1.50;;;11.50;99.90;;;;;;5017230;28;20024;-52
2022/09/17 03:56:18;;;;;;;1.80;1.60;;;11.50;99.90;;;;;;5030491;28;20091;-56
2022/09/17 03:59:04;;;;;;;2.17;1.50;;;11.60;99.90;;;;;;5030052;28;20082;-55
2022/09/17 04:01:50;;;;;;;4.63;1.88;;;11.70;99.90;;;;;;5030153;28;20029;-53
2022/09/17 04:04:36;;;;;;;3.70;1.70;;;11.70;99.90;;;;;;5029667;28;20406;-55
2022/09/17 04:07:22;;;;;;;2.05;1.85;;;11.60;99.90;;;;;;4996855;28;20080;-53
2022/09/17 04:10:08;;;;;;;4.65;2.20;;;11.70;99.90;;;;;;5021563;28;20557;-54
2022/09/17 04:12:54;;;;;;;2.67;1.90;;;11.60;99.90;;;;;;5030116;28;20521;-55
2022/09/17 04:15:41;;;;;;;2.90;1.92;;;11.60;99.90;;;;;;5027065;28;20413;-55
2022/09/17 04:18:27;;;;;;;3.75;2.00;;;11.50;99.90;;;;;;5033026;28;20029;-53
2022/09/17 04:21:13;;;;;;;4.78;2.70;;;11.60;99.90;;;;;;5033483;28;20037;-55
2022/09/17 04:23:59;;;;;;;3.35;2.03;;;11.60;99.90;;;;;;5032242;28;20032;-54
2022/09/17 04:26:45;;;;;;;3.92;2.17;;;11.60;99.90;;;;;;5032656;28;20043;-53
2022/09/17 04:29:30;;;;;;;3.92;2.80;;;11.70;99.90;;;;;;5030421;28;20652;-53
2022/09/17 04:32:16;;;;;;;6.55;2.85;;;11.60;99.90;;;;;;5015182;28;20386;-54
2022/09/17 04:35:03;;;;;;;3.20;2.13;;;11.70;99.90;;;;;;5029769;28;20026;-56
2022/09/17 04:37:58;;;;;;;3.17;1.85;;;11.70;99.90;;;;;;5029766;28;20559;-51
2022/09/17 04:40:45;;;;;;;8.75;2.55;;;11.50;99.90;;;;;;5029522;28;20511;-53
2022/09/17 04:43:31;;;;;;;3.38;2.63;;;11.60;99.90;;;;;;5028890;28;20113;-50
2022/09/17 04:46:17;;;;;;;4.97;2.30;;;11.60;99.90;;;;;;5033038;28;20034;-52
2022/09/17 04:49:03;;;;;;;6.00;2.13;;;11.70;99.90;;;;;;5034144;28;20026;-57
2022/09/17 04:51:49;;;;;;;5.50;2.20;;;11.70;99.90;;;;;;5029673;28;20051;-56
2022/09/17 04:54:34;;;;;;;6.40;2.60;;;11.80;99.90;;;;;;5035336;28;20036;-56
2022/09/17 04:57:22;;;;;;;4.55;2.53;;;11.90;99.90;;;;;;5035505;28;20532;-51
2022/09/17 05:00:09;;;;;;;6.80;2.85;;;11.80;99.90;;;;;;5031587;28;20116;-52
2022/09/17 05:02:56;;;;;;;10.52;4.63;;;11.90;99.90;;;;;;5029994;28;20032;-56
2022/09/17 05:05:41;;;;;;;5.82;2.50;;;12.00;99.90;;;;;;5024362;28;20065;-53
2022/09/17 05:08:27;;;;;;;4.68;2.47;;;12.00;99.90;;;;;;5009477;28;20472;-56
2022/09/17 05:11:13;;;;;;;4.93;2.03;;;12.00;99.90;;;;;;5019892;28;20061;-55
2022/09/17 05:13:59;;;;;;;7.70;2.42;;;12.00;99.90;;;;;;5001924;28;20111;-54
2022/09/17 05:16:45;;;;;;;5.63;2.90;;;12.10;99.90;;;;;;5028991;28;20044;-52
2022/09/17 05:19:31;;;;;;;6.65;2.28;;;12.10;99.90;;;;;;5004323;28;20029;-53
2022/09/17 05:22:18;;;;;;;7.68;2.72;;;12.10;99.90;;;;;;5032204;28;20429;-55
2022/09/17 05:25:04;;;;;;;5.75;2.40;;;12.10;99.90;;;;;;5032945;28;20053;-53
2022/09/17 05:27:51;;;;;;;4.15;2.65;;;12.20;99.90;;;;;;5019628;28;20040;-55
2022/09/17 05:30:37;;;;;;;3.30;2.20;;;12.30;99.90;;;;;;5033468;28;20030;-54
2022/09/17 05:33:23;;;;;;;4.43;2.50;;;12.20;99.90;;;;;;5033621;28;20022;-55
2022/09/17 05:36:09;;;;;;;3.95;2.20;;;12.20;99.90;;;;;;5034858;28;20529;-56
2022/09/17 05:38:55;;;;;;;6.00;2.75;;;12.30;99.90;;;;;;5034336;28;20624;-54
2022/09/17 05:41:41;;;;;;;12.50;3.22;;;12.20;99.90;;;;;;5030087;28;20393;-50
2022/09/17 05:44:27;;;;;;;7.95;3.78;;;12.30;99.90;;;;;;5020216;28;20029;-52
2022/09/17 05:47:13;;;;;;;8.02;2.90;;;12.30;99.90;;;;;;5031909;28;20033;-52
2022/09/17 05:49:59;;;;;;;9.02;2.92;;;12.30;99.90;;;;;;5033263;28;20044;-48
2022/09/17 05:52:45;;;;;;;8.93;4.15;;;12.40;99.90;;;;;;5029129;28;20036;-48
2022/09/17 05:55:32;;;;;;;12.13;3.75;;;12.30;99.90;;;;;;5030294;28;20034;-49
2022/09/17 05:58:18;;;;;;;11.07;3.58;;;12.40;99.90;;;;;;5033081;28;20025;-50
2022/09/17 06:01:04;;;;;;;17.83;3.85;;;12.40;99.90;;;;;;5032314;28;20362;-53
2022/09/17 06:03:50;;;;;;;13.30;3.95;;;12.40;99.90;;;;;;5029331;28;20229;-49
2022/09/17 06:06:37;;;;;;;17.00;4.80;;;12.40;99.90;;;;;;5020222;28;20455;-49
2022/09/17 06:09:23;;;;;;;17.42;4.22;;;12.40;99.90;;;;;;5034132;28;20032;-57
2022/09/17 06:12:09;;;;;;;15.63;4.43;;;12.40;99.90;;;;;;5031343;28;20030;-57
2022/09/17 06:14:55;;;;;;;13.38;3.88;;;12.50;99.90;;;;;;5016172;28;20030;-53
2022/09/17 06:17:42;;;;;;;16.48;4.72;;;12.50;99.90;;;;;;5014707;28;20041;-50
2022/09/17 06:20:28;;;;;;;18.90;4.38;;;12.60;99.90;;;;;;5031173;28;20401;-56
2022/09/17 06:23:14;;;;;;;17.17;4.68;;;12.70;99.90;;;;;;5026018;28;20025;-56
2022/09/17 06:26:01;;;;;;;13.95;4.20;;;12.70;99.90;;;;;;5024140;28;20044;-57
2022/09/17 06:28:47;;;;;;;15.30;3.88;;;12.80;99.90;;;;;;5015052;28;20500;-56
2022/09/17 06:31:33;;;;;;;18.38;4.22;;;12.80;99.90;;;;;;5010915;28;20030;-58
2022/09/17 06:34:19;;;;;;;13.20;4.45;;;12.90;99.90;;;;;;5031580;28;20037;-59
2022/09/17 06:37:06;;;;;;;13.02;4.05;;;12.80;99.90;;;;;;5033222;28;20033;-55
2022/09/17 06:39:53;;;;;;;16.50;4.35;;;12.80;99.90;;;;;;5033333;28;20662;-57
2022/09/17 06:42:39;;;;;;;11.98;4.38;;;12.80;99.90;;;;;;5019626;28;20022;-56
2022/09/17 06:45:25;;;;;;;22.52;5.03;;;12.80;99.90;;;;;;5017512;28;20037;-54
2022/09/17 06:48:11;;;;;;;13.88;4.28;;;12.90;99.90;;;;;;5012682;28;20402;-57
2022/09/17 06:51:02;;;;;;;17.98;4.47;;;12.90;99.90;;;;;;5031816;28;20436;-58
2022/09/17 06:53:48;;;;;;;13.23;4.15;;;12.90;99.90;;;;;;5034162;28;20506;-57
2022/09/17 06:56:37;;;;;;;10.32;3.88;;;12.90;99.90;;;;;;5034020;28;20030;-56
2022/09/17 06:59:29;;;;;;;15.80;3.97;;;13.00;99.90;;;;;;5021047;28;20115;-55
2022/09/17 07:02:15;;;;;;;11.63;3.53;;;13.00;99.90;;;;;;5032667;28;20033;-58
2022/09/17 07:05:01;;;;;;;20.45;3.83;;;13.20;99.90;;;;;;5033130;28;20055;-56
2022/09/17 07:07:47;;;;;;;18.08;4.38;;;13.40;99.90;;;;;;5032964;28;20037;-57
2022/09/17 07:10:33;;;;;;;8.85;3.63;;;13.20;99.90;;;;;;5032742;28;20029;-55
2022/09/17 07:13:19;;;;;;;9.20;2.78;;;13.10;99.90;;;;;;5033121;28;20037;-54
2022/09/17 07:16:05;;;;;;;9.68;3.22;;;13.20;99.90;;;;;;5034540;28;20130;-57
2022/09/17 07:18:52;;;;;;;11.68;3.67;;;13.10;99.90;;;;;;5033118;28;20029;-52
2022/09/17 07:21:38;;;;;;;10.98;3.45;;;13.20;99.90;;;;;;5031733;28;20087;-54
2022/09/17 07:24:24;;;;;;;14.73;4.05;;;13.30;99.80;;;;;;5033520;28;20030;-57
2022/09/17 07:27:10;;;;;;;7.47;3.50;;;13.30;99.90;;;;;;5021059;28;20029;-55
2022/09/17 07:29:56;;;;;;;9.13;3.38;;;13.40;99.30;;;;;;5033444;28;20127;-51
2022/09/17 07:32:42;;;;;;;8.15;3.25;;;13.40;99.20;;;;;;5033003;28;20529;-55
2022/09/17 07:35:28;;;;;;;15.57;4.25;;;13.60;98.70;;;;;;5033903;28;20026;-56
2022/09/17 07:38:14;;;;;;;9.82;3.20;;;13.50;98.80;;;;;;5027112;28;20057;-56
2022/09/17 07:41:05;;;;;;;9.52;2.80;;;13.70;98.60;;;;;;5028176;28;20029;-57
2022/09/17 07:43:55;;;;;;;8.15;3.50;;;13.80;98.30;;;;;;5023244;28;20104;-54
2022/09/17 07:46:41;;;;;;;11.80;3.63;;;13.80;98.10;;;;;;5023518;28;20113;-54
2022/09/17 07:49:27;;;;;;;10.27;2.85;;;13.80;98.20;;;;;;5025431;28;20045;-55
2022/09/17 07:52:14;;;;;;;10.57;3.42;;;13.70;98.00;;;;;;5026855;28;20316;-50
2022/09/17 07:55:00;;;;;;;14.10;3.95;;;13.60;97.90;;;;;;5025817;28;20053;-53
2022/09/17 07:57:52;;;;;;;9.60;3.42;;;13.40;98.10;;;;;;5009158;28;20064;-50
2022/09/17 08:00:38;;;;;;;9.93;3.10;;;13.30;98.30;;;;;;5027291;28;20029;-50
2022/09/17 08:03:24;;;;;;;9.38;3.30;;;13.30;98.00;;;;;;5011484;28;20037;-57
2022/09/17 08:06:12;;;;;;;14.40;3.90;;;13.40;98.00;;;;;;5023599;28;20045;-56
2022/09/17 08:08:58;;;;;;;12.05;3.30;;;13.40;98.00;;;;;;5016779;28;20437;-59
2022/09/17 08:11:44;;;;;;;10.18;3.60;;;13.60;98.00;;;;;;5029903;28;20036;-58
2022/09/17 08:14:30;;;;;;;11.10;4.20;;;13.60;97.80;;;;;;5030281;28;20087;-55
2022/09/17 08:17:18;;;;;;;7.88;3.05;;;13.80;97.80;;;;;;5016987;28;20044;-57
2022/09/17 08:20:05;;;;;;;11.27;3.50;;;13.70;97.70;;;;;;5021962;28;20061;-57
2022/09/17 08:22:58;;;;;;;9.95;3.30;;;13.90;97.40;;;;;;5023284;28;20033;-57
2022/09/17 08:25:50;;;;;;;6.68;3.42;;;13.80;96.80;;;;;;5023958;28;20029;-55
2022/09/17 08:28:36;;;;;;;12.07;3.88;;;13.70;96.90;;;;;;5028966;28;20025;-56
2022/09/17 08:31:25;;;;;;;10.02;2.90;;;13.80;96.90;;;;;;5027622;28;20097;-56
2022/09/17 08:34:12;;;;;;;11.93;3.30;;;13.80;97.10;;;;;;5025538;28;20026;-57
2022/09/17 08:36:58;;;;;;;11.18;3.72;;;13.70;97.50;;;;;;5022484;28;20109;-56
2022/09/17 08:39:44;;;;;;;12.18;3.63;;;13.60;97.70;;;;;;5024439;28;20073;-55
2022/09/17 08:42:48;;;;;;;9.55;3.13;;;13.50;97.90;;;;;;5026249;28;20064;-56
2022/09/17 08:45:35;;;;;;;9.90;3.00;;;13.70;97.70;;;;;;5022830;28;20041;-53
2022/09/17 08:48:21;;;;;;;13.27;3.70;;;13.80;97.40;;;;;;5007655;28;20038;-56
2022/09/17 08:51:44;;;;;;;8.45;3.25;;;13.80;97.60;;;;;;5020784;28;20026;-59
2022/09/17 08:54:47;;;;;;;10.35;3.17;;;14.00;97.20;;;;;;5020894;28;20540;-59
2022/09/17 08:57:47;;;;;;;8.43;3.28;;;14.00;97.20;;;;;;5020762;28;20051;-59
2022/09/17 09:00:49;;;;;;;10.68;3.78;;;14.10;97.20;;;;;;5023619;28;20597;-57
2022/09/17 09:03:58;;;;;;;11.52;3.42;;;14.20;97.00;;;;;;5035192;28;20021;-52
2022/09/17 09:06:57;;;;;;;8.10;3.28;;;14.30;96.90;;;;;;5022508;28;20030;-60
2022/09/17 09:10:03;;;;;;;11.23;3.42;;;14.20;96.40;;;;;;5031086;28;20025;-58
2022/09/17 09:12:52;;;;;;;10.30;2.85;;;14.20;96.60;;;;;;5029028;28;20029;-57
2022/09/17 09:15:46;;;;;;;7.65;3.20;;;14.10;96.70;;;;;;5029663;28;20044;-55
2022/09/17 09:18:39;;;;;;;10.10;3.78;;;14.30;96.20;;;;;;5029110;28;20033;-57
2022/09/17 09:21:35;;;;;;;8.45;3.53;;;14.20;96.50;;;;;;5028505;28;20371;-58
2022/09/17 09:24:33;;;;;;;9.55;3.25;;;14.10;95.90;;;;;;5029741;28;20238;-56
2022/09/17 09:27:46;;;;;;;12.40;3.00;;;14.10;95.70;;;;;;5030637;28;20026;-58
2022/09/17 09:31:11;;;;;;;15.73;4.35;;;14.00;95.40;;;;;;5029049;28;20033;-55
2022/09/17 09:33:58;;;;;;;12.15;4.07;;;14.00;95.40;;;;;;5029473;28;20057;-56
2022/09/17 09:36:45;;;;;;;11.43;3.38;;;14.10;95.70;;;;;;5028860;28;20525;-56
2022/09/17 09:39:34;;;;;;;9.07;2.78;;;14.40;95.00;;;;;;5030311;28;20540;-57
2022/09/17 09:42:35;;;;;;;10.63;3.67;;;14.50;94.70;;;;;;5029491;28;20048;-58
2022/09/17 09:45:31;;;;;;;8.75;3.92;;;14.30;95.10;;;;;;5029277;28;20028;-57
2022/09/17 09:48:32;;;;;;;8.75;3.17;;;14.50;94.20;;;;;;5022795;28;20468;-57
2022/09/17 09:51:45;;;;;;;9.80;3.10;;;14.80;93.60;;;;;;5021082;28;20505;-55
2022/09/17 09:54:34;;;;;;;9.60;3.15;;;14.80;93.30;;;;;;5009452;28;20038;-56
2022/09/17 09:57:34;;;;;;;10.93;3.85;;;14.70;93.00;;;;;;5023254;28;20117;-57
2022/09/17 10:00:38;;;;;;;9.48;3.17;;;14.70;92.60;;;;;;5028696;28;20104;-55
2022/09/17 10:03:34;;;;;;;8.18;2.97;;;14.80;92.20;;;;;;5028902;28;20061;-53
2022/09/17 10:06:20;;;;;;;8.75;3.00;;;15.00;91.30;;;;;;5015974;28;20032;-56
2022/09/17 10:09:06;;;;;;;9.98;3.35;;;14.90;91.60;;;;;;5032706;28;20081;-59
2022/09/17 10:12:03;;;;;;;10.75;3.15;;;14.80;91.90;;;;;;5032219;28;20132;-57
2022/09/17 10:14:49;;;;;;;14.23;3.13;;;14.60;92.00;;;;;;5032652;28;20029;-57
2022/09/17 10:17:35;;;;;;;10.65;3.38;;;14.60;92.10;;;;;;5032476;28;20034;-57
2022/09/17 10:20:21;;;;;;;18.48;3.63;;;15.00;91.60;;;;;;5004270;28;20029;-58
2022/09/17 10:23:07;;;;;;;9.45;3.78;;;15.30;91.30;;;;;;5032237;28;20408;-60
2022/09/17 10:25:54;;;;;;;11.27;3.80;;;15.40;90.70;;;;;;5032038;28;20048;-56
2022/09/17 10:28:45;;;;;;;10.77;3.58;;;15.20;91.10;;;;;;5033539;28;20029;-56
2022/09/17 10:31:52;;;;;;;9.23;3.63;;;14.80;90.90;;;;;;5027705;28;20029;-57
2022/09/17 10:34:40;;;;;;;12.32;3.20;;;14.80;90.80;;;;;;5018103;28;20030;-59
2022/09/17 10:37:45;;;;;;;9.32;3.33;;;14.60;90.50;;;;;;5032673;28;20057;-61
2022/09/17 10:40:31;;;;;;;16.02;3.70;;;14.70;90.20;;;;;;5012484;28;20108;-56
2022/09/17 10:43:21;;;;;;;9.30;3.65;;;14.80;90.00;;;;;;5032152;28;20036;-57
2022/09/17 10:46:25;;;;;;;11.85;3.88;;;14.90;89.80;;;;;;5033741;28;20548;-55
2022/09/17 10:49:48;;;;;;;9.90;3.58;;;15.10;90.00;;;;;;5031972;28;20100;-54
2022/09/17 10:52:38;;;;;;;9.27;3.30;;;15.30;89.80;;;;;;5033325;28;20029;-58
2022/09/17 10:55:43;;;;;;;13.75;4.03;;;15.50;88.50;;;;;;5034943;28;20026;-57
2022/09/17 10:58:56;;;;;;;12.65;4.00;;;15.40;87.00;;;;;;5032366;28;20097;-56
2022/09/17 11:02:10;;;;;;;12.18;3.80;;;15.60;87.50;;;;;;4995541;28;20109;-57
2022/09/17 11:05:21;;;;;;;11.50;3.05;;;15.80;87.90;;;;;;5033252;28;20056;-56
2022/09/17 11:08:22;;;;;;;10.48;3.45;;;16.20;86.50;;;;;;5031268;28;20072;-59
2022/09/17 11:11:15;;;;;;;11.68;3.30;;;16.30;84.90;;;;;;5030957;28;20371;-54
2022/09/17 11:14:15;;;;;;;6.10;2.90;;;16.10;85.80;;;;;;5032084;28;20109;-57
2022/09/17 11:17:40;;;;;;;12.98;3.42;;;15.80;83.80;;;;;;5016594;28;20029;-60
2022/09/17 11:21:03;;;;;;;7.80;3.33;;;15.40;84.90;;;;;;5012449;28;20030;-53
2022/09/17 11:24:21;;;;;;;8.55;3.92;;;15.30;85.90;;;;;;5012409;28;20030;-54
2022/09/17 11:27:19;;;;;;;8.48;2.97;;;15.60;85.50;;;;;;5003846;28;20453;-56
2022/09/17 11:30:18;;;;;;;8.80;3.45;;;15.60;84.00;;;;;;5034013;28;20033;-59
2022/09/17 11:33:17;;;;;;;10.10;3.47;;;15.40;81.20;;;;;;5022794;28;20017;-56
2022/09/17 11:36:12;;;;;;;8.60;3.13;;;15.50;80.80;;;;;;5038682;28;20030;-55
2022/09/17 11:39:13;;;;;;;12.13;3.28;;;15.80;80.20;;;;;;5039176;28;20033;-54
2022/09/17 11:42:01;;;;;;;7.25;3.03;;;16.00;79.40;;;;;;5012939;28;20105;-57
2022/09/17 11:44:53;;;;;;;11.70;3.45;;;16.10;77.30;;;;;;5028914;28;20516;-54
2022/09/17 11:47:58;;;;;;;6.90;2.75;;;16.20;76.70;;;;;;5015605;28;20041;-56
2022/09/17 11:50:54;;;;;;;11.02;3.42;;;16.20;74.80;;;;;;5030535;28;20025;-55
2022/09/17 11:53:47;;;;;;;10.57;3.78;;;16.20;75.60;;;;;;5032215;28;20042;-56
2022/09/17 11:56:43;;;;;;;6.80;2.50;;;16.20;75.90;;;;;;5030730;28;20120;-54
2022/09/17 11:59:36;;;;;;;7.55;3.30;;;16.40;74.90;;;;;;5017894;28;20112;-51
2022/09/17 12:03:05;;;;;;;9.20;2.70;;;16.70;74.20;;;;;;5030420;28;20513;-56
2022/09/17 12:05:55;;;;;;;8.98;2.92;;;17.00;74.30;;;;;;5012760;28;20033;-57
2022/09/17 12:08:59;;;;;;;7.90;3.05;;;16.60;75.10;;;;;;5032736;28;20497;-57
2022/09/17 12:11:54;;;;;;;13.05;3.47;;;16.70;74.40;;;;;;5031943;28;20037;-56
2022/09/17 12:14:49;;;;;;;8.23;3.15;;;16.40;74.60;;;;;;5030686;28;20035;-53
2022/09/17 12:18:03;;;;;;;9.73;3.17;;;16.40;74.40;;;;;;5031654;28;20029;-56
2022/09/17 12:20:54;;;;;;;5.50;2.92;;;16.30;74.10;;;;;;5030762;28;20033;-57
2022/09/17 12:23:47;;;;;;;8.02;3.03;;;16.10;77.30;;;;;;5011239;28;20026;-53
2022/09/17 12:26:45;;;;;;;9.82;3.05;;;16.10;76.90;;;;;;5026506;28;20117;-55
2022/09/17 12:29:45;;;;;;;9.07;2.53;;;16.20;79.50;;;;;;5029523;28;20179;-54
2022/09/17 12:32:49;;;;;;;10.35;2.97;;;16.30;81.30;;;;;;5030041;28;20022;-54
2022/09/17 12:35:57;;;;;;;6.55;3.38;;;16.30;83.10;;;;;;5026800;28;20021;-48
2022/09/17 12:38:55;;;;;;;7.63;3.20;;;16.60;81.50;;;;;;5028262;28;20053;-49
2022/09/17 12:41:59;;;;;;;7.22;3.13;;;16.70;78.60;;;;;;5016739;28;20457;-55
2022/09/17 12:45:00;;;;;;;7.80;2.80;;;16.50;78.50;;;;;;5020737;28;20029;-56
2022/09/17 12:48:09;;;;;;;9.18;3.60;;;16.60;76.50;;;;;;5015434;28;20295;-54
2022/09/17 12:51:03;;;;;;;10.35;3.67;;;16.80;74.80;;;;;;5018162;28;20034;-54
2022/09/17 12:54:05;;;;;;;10.70;3.13;;;17.00;75.00;;;;;;5014878;28;20087;-53
2022/09/17 12:56:54;;;;;;;13.65;3.67;;;17.10;78.60;;;;;;5025606;28;20112;-51
2022/09/17 13:00:04;;;;;;;11.93;3.22;;;16.90;77.80;;;;;;5029315;28;20059;-54
2022/09/17 13:02:57;;;;;;;5.13;2.83;;;16.60;76.70;;;;;;5028703;28;20452;-57
2022/09/17 13:05:53;;;;;;;10.50;3.10;;;16.50;77.40;;;;;;5028681;28;20681;-54
2022/09/17 13:09:20;;;;;;;9.05;3.13;;;16.10;83.60;;;;;;5029465;28;20517;-54
2022/09/17 13:12:38;;;;;;;12.43;3.35;;;16.40;85.90;;;;;;5019141;28;20084;-52
2022/09/17 13:15:42;;;;;;;8.88;2.92;;;16.80;84.30;;;;;;5029871;28;20448;-54
2022/09/17 13:18:35;;;;;;;9.27;3.40;;;16.70;84.30;;;;;;5030145;28;20064;-51
2022/09/17 13:21:22;;;;;;;7.85;3.20;;;16.70;84.00;;;;;;5009936;28;20022;-55
2022/09/17 13:24:21;;;;;;;8.45;3.08;;;17.20;83.50;;;;;;5028986;28;20026;-51
2022/09/17 13:27:22;;;;;;;8.45;3.22;;;17.30;80.30;;;;;;5011194;28;20125;-55
2022/09/17 13:30:10;;;;;;;6.70;3.10;;;17.20;80.90;;;;;;5010416;28;20026;-57
2022/09/17 13:32:56;;;;;;;7.97;2.80;;;17.30;80.00;;;;;;5003782;28;20022;-53
2022/09/17 13:35:42;;;;;;;8.35;3.00;;;17.00;80.20;;;;;;5028292;28;20472;-55
2022/09/17 13:38:40;;;;;;;8.45;2.83;;;16.80;78.40;;;;;;5023905;28;20034;-55
2022/09/17 13:41:29;;;;;;;8.32;3.22;;;17.00;77.10;;;;;;5030416;28;20103;-51
2022/09/17 13:44:21;;;;;;;6.03;2.65;;;17.40;75.30;;;;;;5033093;28;20033;-51
2022/09/17 13:47:16;;;;;;;6.05;3.05;;;17.40;71.70;;;;;;5032340;28;20103;-52
2022/09/17 13:50:06;;;;;;;10.27;3.53;;;17.50;71.60;;;;;;5032368;28;20108;-54
2022/09/17 13:52:57;;;;;;;9.88;3.42;;;17.80;71.70;;;;;;5033193;28;20026;-54
2022/09/17 13:55:50;;;;;;;6.45;2.70;;;17.80;71.10;;;;;;5033365;28;20033;-51
2022/09/17 13:58:36;;;;;;;5.93;2.90;;;18.20;70.80;;;;;;5035421;28;20116;-51
2022/09/17 14:01:47;;;;;;;7.00;2.63;;;18.10;70.20;;;;;;5039614;28;20452;-52
2022/09/17 14:04:45;;;;;;;8.00;2.97;;;18.20;71.20;;;;;;5033455;28;20486;-56
2022/09/17 14:07:33;;;;;;;5.88;2.70;;;17.70;72.70;;;;;;5026354;28;20029;-49
2022/09/17 14:10:36;;;;;;;9.80;3.17;;;17.70;72.90;;;;;;5022304;28;20595;-54
2022/09/17 14:13:26;;;;;;;8.60;3.70;;;18.00;73.60;;;;;;5026444;28;20029;-53
2022/09/17 14:16:27;;;;;;;8.65;2.97;;;17.10;75.30;;;;;;5032445;28;20033;-52
2022/09/17 14:19:35;;;;;;;10.18;3.53;;;16.80;76.20;;;;;;5025428;28;20060;-54
2022/09/17 14:22:25;;;;;;;6.28;2.60;;;16.40;84.80;;;;;;5014097;28;20538;-56
2022/09/17 14:25:16;;;;;;;7.03;2.65;;;16.00;83.20;;;;;;5032678;28;20029;-55
2022/09/17 14:28:22;;;;;;;5.47;2.30;;;15.50;80.90;;;;;;5012525;28;20121;-55
2022/09/17 14:31:16;;;;;;;;;;;15.30;78.90;;;;;;5017569;28;20065;-53
2022/09/17 14:34:05;;;;;;;6.22;2.00;;;15.10;76.30;;;;;;5032529;28;19905;-52
2022/09/17 14:36:52;;;;;;;6.65;2.22;;;15.10;73.70;;;;;;5031700;28;20048;-54
2022/09/17 14:39:39;;;;;;;7.07;3.47;;;15.30;75.10;;;;;;5032039;28;20030;-53
2022/09/17 14:42:33;;;;;;;8.18;2.92;;;16.10;74.90;;;;;;5031165;28;20037;-52
2022/09/17 14:45:27;;;;;;;4.97;2.70;;;16.70;73.10;;;;;;5031616;28;20029;-54
2022/09/17 14:48:33;;;;;;;7.60;2.42;;;17.10;72.70;;;;;;5012519;28;20041;-51
2022/09/17 14:51:24;;;;;;;7.75;2.78;;;17.40;71.60;;;;;;5031801;28;20164;-52
2022/09/17 14:54:19;;;;;;;6.07;2.60;;;17.30;71.70;;;;;;5032421;28;20504;-55
2022/09/17 14:57:07;;;;;;;6.75;3.10;;;17.50;71.70;;;;;;5032406;28;20033;-53
2022/09/17 14:59:57;;;;;;;6.15;2.58;;;17.70;72.30;;;;;;5030982;28;20091;-52